Schultzville, Pennsylvania
Current Conditions -  °F | °C
As of 9:28 AM on Monday 26 Jan 2015 (Local Time) from KPTW Reporting Station
Light Snow Light Snow  
Wind Chill:   Ceiling: 2800
Heat Index: 21°   Visibility: 3mi
Dew Point: 17°   Wind: 13mph
Humidity: 85%   Direction: 50°NE
Pressure: 29.92"   Gusts: NA
Location:  40.3877°N, 75.5817°W
Report Text: KPTW 261428Z AUTO 05011KT 3SM -SN BR OVC028 M06/M08 A2992 RMK AO2 P0000 T10611083
Loading
Personal Weather Stations






























Interactive Weather Map New forecast layout! Learn more

10-Day Weather Forecast

Advertisements
Track Severe Weather on mobile